< < Back
Terminal Aerodrome Forecast


Current Version              Previous Versions:   1  2  3  4  5  6  7  8  9  

Terminal Aerodrome Forecast

910
FTUS44 KOHX 061100
TAFBNA
TAF
KBNA 061130Z 0612/0712 VRB05KT P6SM SKC=



Latest METAR

332
SAUS70 KWBC 061600 RRP
MTRBNA
METAR KBNA 061553Z 00000KT 10SM CLR M04/M09 A3059 RMK AO2 SLP366
T10391094


USA.gov is the U.S. government's official web portal to all federal, state and local government web resources and services.